Time;durP1;ratioP1;P1;durP2;ratioP2;P2;SDS_P1;SDS_P2;PMS_P1;PMS_P2;Temp;Humidity;BMP_temperature;BMP_pressure;BME280_temperature;BME280_humidity;BME280_pressure;Samples;Min_cycle;Max_cycle;Signal;HPM_P1;HPM_P2
2023/03/10 00:02:23;;;;;;;28.67;11.18;;;;;;;7.23;100.00;98679.61;1721170;83;21197;-84
2023/03/10 00:05:28;;;;;;;23.20;10.50;;;;;;;7.22;100.00;98677.09;1720780;83;21213;-84
2023/03/10 00:08:35;;;;;;;22.27;10.93;;;;;;;7.25;100.00;98679.44;1719953;83;21228;-85
2023/03/10 00:11:42;;;;;;;23.15;11.38;;;;;;;7.23;100.00;98679.61;1721246;83;21196;-84
2023/03/10 00:14:48;;;;;;;23.27;11.63;;;;;;;7.26;100.00;98683.83;1719816;83;21208;-83
2023/03/10 00:17:55;;;;;;;21.70;10.58;;;;;;;7.26;100.00;98688.75;1721203;83;21375;-84
2023/03/10 00:21:01;;;;;;;28.75;11.97;;;;;;;7.29;100.00;98692.45;1717426;82;21344;-84
2023/03/10 00:24:08;;;;;;;25.35;10.80;;;;;;;7.32;100.00;98694.76;1709556;83;21212;-83
2023/03/10 00:27:14;;;;;;;23.57;11.63;;;;;;;7.32;100.00;98692.03;1710968;84;21201;-84
2023/03/10 00:30:22;;;;;;;26.70;11.53;;;;;;;7.26;100.00;98691.47;1709578;84;21244;-84
2023/03/10 00:33:31;;;;;;;23.98;11.18;;;;;;;7.24;100.00;98689.96;1710911;84;21185;-85
2023/03/10 00:36:39;;;;;;;21.70;12.45;;;;;;;7.21;100.00;98680.33;1709498;83;21220;-83
2023/03/10 00:39:45;;;;;;;27.73;12.75;;;;;;;7.20;100.00;98679.14;1709480;84;21209;-84
2023/03/10 00:42:51;;;;;;;29.82;13.38;;;;;;;7.19;100.00;98678.30;1709539;84;21205;-83
2023/03/10 00:45:58;;;;;;;29.77;14.30;;;;;;;7.16;100.00;98676.00;1709580;84;21205;-83
2023/03/10 00:49:04;;;;;;;25.75;13.53;;;;;;;7.14;100.00;98682.97;1709574;84;21205;-84
2023/03/10 00:52:09;;;;;;;20.85;12.28;;;;;;;7.13;100.00;98677.73;1709450;84;21225;-84
2023/03/10 00:55:16;;;;;;;29.37;13.58;;;;;;;7.09;100.00;98673.71;1710952;84;21200;-84
2023/03/10 00:58:22;;;;;;;19.27;11.70;;;;;;;7.07;100.00;98673.08;1710921;84;22507;-84
2023/03/10 01:01:39;;;;;;;25.23;12.75;;;;;;;7.04;100.00;98662.58;1710161;84;21304;-84
2023/03/10 01:04:45;;;;;;;33.90;14.13;;;;;;;7.06;100.00;98659.17;1709623;83;21232;-83
2023/03/10 01:07:53;;;;;;;27.55;14.40;;;;;;;7.07;100.00;98660.33;1709570;84;21245;-84
2023/03/10 01:11:00;;;;;;;30.08;14.47;;;;;;;7.05;100.00;98655.58;1710491;84;21209;-83
2023/03/10 01:14:09;;;;;;;30.27;14.45;;;;;;;7.11;100.00;98662.14;1709557;83;21217;-84
2023/03/10 01:17:15;;;;;;;29.20;14.05;;;;;;;7.15;100.00;98664.28;1710776;84;21193;-83
2023/03/10 01:20:21;;;;;;;22.45;12.47;;;;;;;7.17;100.00;98664.91;1710808;84;21205;-83
2023/03/10 01:23:31;;;;;;;25.00;13.05;;;;;;;7.17;100.00;98673.59;1699854;83;21228;-84
2023/03/10 01:26:38;;;;;;;36.48;17.17;;;;;;;7.16;100.00;98676.00;1746221;82;21164;-84
2023/03/10 01:29:44;;;;;;;32.13;16.67;;;;;;;7.16;100.00;98682.80;1715822;83;21297;-84
2023/03/10 01:32:51;;;;;;;29.35;14.73;;;;;;;7.17;100.00;98674.95;1746505;82;21739;-84
2023/03/10 01:35:58;;;;;;;28.27;13.72;;;;;;;7.17;100.00;98680.39;1716709;83;21189;-84
2023/03/10 01:39:05;;;;;;;24.52;12.65;;;;;;;7.18;100.00;98679.34;1747908;82;21160;-84
2023/03/10 01:42:10;;;;;;;25.15;13.43;;;;;;;7.19;100.00;98681.02;1715892;83;21768;-85
2023/03/10 01:45:19;;;;;;;37.45;18.42;;;;;;;7.22;100.00;98683.37;1747807;82;21231;-84
2023/03/10 01:48:24;;;;;;;30.05;13.98;;;;;;;7.21;100.00;98682.21;1716741;83;21201;-84
2023/03/10 01:51:29;;;;;;;29.77;14.55;;;;;;;7.20;100.00;98682.73;1747386;82;21187;-84
2023/03/10 01:54:41;;;;;;;30.50;13.90;;;;;;;7.29;100.00;98687.50;1716453;83;21244;-85
2023/03/10 01:57:57;;;;;;;30.77;14.15;;;;;;;7.26;100.00;98687.39;1747851;82;21185;-85
2023/03/10 02:01:03;;;;;;;26.42;13.48;;;;;;;7.27;100.00;98693.14;1715334;83;21213;-84
2023/03/10 02:04:16;;;;;;;32.73;14.50;;;;;;;7.27;100.00;98702.66;1747809;82;21219;-84
2023/03/10 02:07:27;;;;;;;28.42;14.00;;;;;;;7.28;100.00;98704.86;1715374;83;21201;-84
2023/03/10 02:10:33;;;;;;;28.50;13.40;;;;;;;7.27;100.00;98704.02;1728649;82;21515;-85
2023/03/10 02:13:40;;;;;;;26.75;14.38;;;;;;;7.32;100.00;98707.00;1696907;83;21232;-84
2023/03/10 02:16:45;;;;;;;30.32;13.13;;;;;;;7.27;100.00;98702.66;1746306;82;21259;-84
2023/03/10 02:23:45;;;;;;;36.42;14.63;;;;;;;7.28;100.00;98715.73;1747591;81;21261;-84
2023/03/10 02:27:08;;;;;;;26.35;13.15;;;;;;;7.31;100.00;98709.40;1750477;82;21189;-84
2023/03/10 02:30:20;;;;;;;32.28;15.05;;;;;;;7.27;100.00;98704.02;1749480;82;21222;-83
2023/03/10 02:33:29;;;;;;;24.52;13.72;;;;;;;7.26;100.00;98703.70;1749230;82;21194;-84
2023/03/10 02:36:39;;;;;;;33.38;15.03;;;;;;;7.26;100.00;98701.50;1750378;82;21182;-84
2023/03/10 02:39:45;;;;;;;34.98;13.93;;;;;;;7.25;100.00;98707.47;1750348;82;21222;-84
2023/03/10 02:42:53;;;;;;;24.18;13.45;;;;;;;7.23;100.00;98704.08;1749528;82;21233;-83
2023/03/10 02:46:06;;;;;;;25.55;12.40;;;;;;;7.22;100.00;98705.13;1750362;82;22509;-84
2023/03/10 02:49:15;;;;;;;33.23;13.60;;;;;;;7.40;100.00;98713.67;1750585;82;21693;-83
2023/03/10 02:52:30;;;;;;;25.52;13.30;;;;;;;7.40;100.00;98715.55;1750054;82;21265;-83
2023/03/10 02:55:36;;;;;;;33.13;13.15;;;;;;;7.30;100.00;98710.97;1748047;82;21197;-83
2023/03/10 02:58:45;;;;;;;34.20;14.25;;;;;;;7.33;100.00;98707.84;1750272;82;21190;-83
2023/03/10 03:01:57;;;;;;;26.20;13.72;;;;;;;7.28;100.00;98708.94;1744177;81;21247;-83
2023/03/10 03:05:04;;;;;;;25.70;13.08;;;;;;;7.30;100.00;98706.88;1705226;84;21201;-83
2023/03/10 03:08:12;;;;;;;25.17;13.05;;;;;;;7.25;100.00;98703.39;1736261;82;21220;-82
2023/03/10 03:11:18;;;;;;;32.35;13.05;;;;;;;7.21;100.00;98714.33;1736336;82;21185;-84
2023/03/10 03:14:24;;;;;;;26.40;12.07;;;;;;;7.16;100.00;98718.14;1735018;82;21231;-85
2023/03/10 03:17:45;;;;;;;26.57;13.03;;;;;;;7.12;100.00;98714.96;1851826;76;22215;-83
2023/03/10 03:20:51;;;;;;;32.90;14.10;;;;;;;7.05;100.00;98725.42;1815954;79;21808;-83
2023/03/10 03:24:11;;;;;;;38.25;12.90;;;;;;;7.00;100.00;98730.08;1816080;79;21773;-83
2023/03/10 03:27:26;;;;;;;28.23;12.55;;;;;;;7.06;100.00;98729.34;1876170;76;22205;-89
2023/03/10 03:30:33;;;;;;;33.45;13.83;;;;;;;7.07;100.00;98734.25;1779331;80;21259;-90
2023/03/10 03:33:39;;;;;;;35.30;14.45;;;;;;;7.10;100.00;98721.61;1750720;82;21760;-89
2023/03/10 03:36:46;;;;;;;27.87;12.43;;;;;;;7.14;100.00;98720.20;1718220;83;21129;-89
2023/03/10 03:39:55;;;;;;;32.55;14.95;;;;;;;7.13;100.00;98728.03;1719388;83;21212;-89
2023/03/10 03:43:01;;;;;;;27.87;11.50;;;;;;;7.15;100.00;98736.34;1719118;83;21205;-89
2023/03/10 03:49:28;;;;;;;28.47;12.23;;;;;;;7.21;100.00;98744.23;1719144;83;21213;-88
2023/03/10 03:52:35;;;;;;;29.52;11.70;;;;;;;7.23;100.00;98745.39;1719116;83;21252;-90
2023/03/10 03:55:43;;;;;;;26.27;11.12;;;;;;;7.24;100.00;98741.11;1718691;83;21966;-90
2023/03/10 03:58:52;;;;;;;31.07;10.88;;;;;;;7.29;100.00;98740.53;1718366;82;21216;-90
2023/03/10 04:02:01;;;;;;;25.23;11.33;;;;;;;7.24;100.00;98746.55;1719829;83;21181;-90
2023/03/10 04:05:07;;;;;;;26.50;11.50;;;;;;;7.20;100.00;98738.97;1718288;83;21259;-89
2023/03/10 04:08:15;;;;;;;23.95;10.65;;;;;;;7.13;100.00;98740.27;1720637;83;21238;-90
2023/03/10 04:11:37;;;;;;;27.75;11.57;;;;;;;7.14;100.00;98746.87;1719161;83;21224;-89
2023/03/10 04:14:43;;;;;;;26.17;10.98;;;;;;;7.14;100.00;98754.19;1719803;83;21193;-89
2023/03/10 04:20:53;;;;;;;23.38;11.10;;;;;;;7.01;100.00;98756.75;1717197;83;21291;-90
2023/03/10 04:24:01;;;;;;;27.95;11.90;;;;;;;6.90;100.00;98755.38;1717941;82;21862;-90
2023/03/10 04:27:19;;;;;;;23.25;10.45;;;;;;;6.78;100.00;98751.48;1708197;82;21182;-89
2023/03/10 04:30:28;;;;;;;26.70;11.70;;;;;;;6.66;100.00;98760.61;1699282;84;21799;-90
2023/03/10 04:33:34;;;;;;;23.85;10.50;;;;;;;6.56;100.00;98762.26;1700347;84;21198;-89
2023/03/10 04:36:39;;;;;;;30.32;13.45;;;;;;;6.48;100.00;98762.34;1699803;84;21324;-89
2023/03/10 04:39:45;;;;;;;37.33;12.15;;;;;;;6.44;100.00;98754.76;1699674;84;22393;-89
2023/03/10 04:42:51;;;;;;;26.70;10.35;;;;;;;6.43;100.00;98762.07;1719841;82;21859;-89
2023/03/10 04:45:58;;;;;;;27.60;11.15;;;;;;;6.46;100.00;98766.30;1729197;83;21173;-89
2023/03/10 04:49:05;;;;;;;30.43;11.15;;;;;;;6.50;100.00;98760.83;1730612;80;21791;-89
2023/03/10 04:52:10;;;;;;;26.65;10.75;;;;;;;6.47;100.00;98766.10;1700159;84;21268;-88
2023/03/10 04:55:18;;;;;;;21.82;10.60;;;;;;;6.48;100.00;98767.78;1720522;83;21204;-89
2023/03/10 04:58:27;;;;;;;20.85;9.50;;;;;;;6.53;100.00;98772.66;1729502;83;21764;-88
2023/03/10 05:01:33;;;;;;;18.75;9.88;;;;;;;6.58;100.00;98767.50;1719387;83;21207;-89
2023/03/10 05:04:34;;;;;;;24.93;10.60;;;;;;;6.64;100.00;98781.19;1730808;83;21754;-89
2023/03/10 05:07:33;;;;;;;30.20;10.03;;;;;;;6.82;100.00;98775.37;1729078;82;21205;-89
2023/03/10 05:10:38;;;;;;;31.05;10.03;;;;;;;7.02;100.00;98778.84;1720887;83;21193;-88
2023/03/10 05:13:45;;;;;;;21.68;9.70;;;;;;;7.18;100.00;98776.72;1729194;83;21260;-89
2023/03/10 05:16:53;;;;;;;26.40;9.60;;;;;;;7.40;100.00;98777.60;1720669;83;21204;-89
2023/03/10 05:19:59;;;;;;;22.00;9.58;;;;;;;7.61;100.00;98775.91;1710105;83;21229;-89
2023/03/10 05:23:09;;;;;;;;;;;;;;;7.81;100.00;98767.92;1721662;83;21938;-89
2023/03/10 05:26:41;;;;;;;28.90;9.43;;;;;;;7.99;100.00;98767.45;1719994;83;20377;-89
2023/03/10 05:29:49;;;;;;;24.12;9.45;;;;;;;8.12;100.00;98783.91;1729139;83;21280;-90
2023/03/10 05:32:48;;;;;;;19.98;9.10;;;;;;;8.23;100.00;98786.59;1720152;83;21224;-90
2023/03/10 05:35:44;;;;;;;33.63;9.30;;;;;;;8.33;100.00;98788.48;1728460;83;21226;-90
2023/03/10 05:38:45;;;;;;;25.77;8.83;;;;;;;8.43;100.00;98789.83;1719454;83;21763;-89
2023/03/10 05:41:50;;;;;;;24.05;8.88;;;;;;;8.57;100.00;98794.84;1730405;83;21741;-90
2023/03/10 05:44:57;;;;;;;25.40;9.18;;;;;;;8.66;100.00;98807.80;1720756;83;21481;-90
2023/03/10 05:48:03;;;;;;;21.40;9.18;;;;;;;8.81;100.00;98803.58;1729188;83;21228;-90
2023/03/10 05:51:15;;;;;;;27.45;9.00;;;;;;;8.95;100.00;98807.53;1720559;83;21217;-90
2023/03/10 05:54:23;;;;;;;25.43;8.30;;;;;;;9.09;100.00;98800.25;1730418;83;22463;-90
2023/03/10 05:57:36;;;;;;;19.17;7.87;;;;;;;9.41;100.00;98808.73;1857526;76;22253;-85
2023/03/10 06:00:42;;;;;;;23.50;8.55;;;;;;;9.58;100.00;98820.97;1750749;82;21965;-84
2023/03/10 06:03:51;;;;;;;23.75;7.78;;;;;;;9.76;100.00;98816.30;1767231;81;21233;-82
2023/03/10 06:07:02;;;;;;;22.13;7.20;;;;;;;9.86;100.00;98830.38;1750203;82;21184;-84
2023/03/10 06:10:16;;;;;;;18.23;8.05;;;;;;;9.93;100.00;98837.23;1857500;76;22185;-85
2023/03/10 06:13:37;;;;;;;21.55;8.15;;;;;;;9.89;100.00;98843.63;1749966;81;21224;-86
2023/03/10 06:16:52;;;;;;;21.75;8.25;;;;;;;9.93;100.00;98853.62;1717654;82;21170;-86
2023/03/10 06:20:09;;;;;;;17.07;8.50;;;;;;;10.03;100.00;98858.68;1840892;76;22263;-84
2023/03/10 06:23:53;;;;;;;19.90;7.33;;;;;;;10.07;100.00;98859.92;1743435;80;21286;-84
2023/03/10 06:27:00;;;;;;;18.20;8.90;;;;;;;10.11;100.00;98859.30;1732834;80;21464;-83
2023/03/10 06:30:26;;;;;;;24.63;8.73;;;;;;;10.38;100.00;98868.39;1798530;76;28244;-84
2023/03/10 06:33:47;;;;;;;24.87;8.45;;;;;;;10.53;99.83;98867.34;1786490;79;21218;-83
2023/03/10 06:37:10;;;;;;;23.20;8.80;;;;;;;10.73;98.44;98876.39;1788774;79;21179;-84
2023/03/10 06:40:17;;;;;;;20.27;7.25;;;;;;;10.76;97.39;98886.88;1788114;79;21194;-85
2023/03/10 06:43:25;;;;;;;20.85;8.35;;;;;;;10.82;96.42;98892.89;1796808;79;21518;-83
2023/03/10 06:46:31;;;;;;;24.32;10.20;;;;;;;10.80;95.75;98891.41;1779388;79;21137;-84
2023/03/10 06:49:40;;;;;;;23.25;9.93;;;;;;;10.89;95.93;98900.55;1781259;79;21193;-85
2023/03/10 06:56:16;;;;;;;24.92;8.75;;;;;;;11.15;94.93;98901.54;1777704;79;20330;-84
2023/03/10 07:02:32;;;;;;;;;;;;;;;11.41;93.09;98909.69;1761417;79;21252;-84
2023/03/10 07:05:37;;;;;;;19.85;6.75;;;;;;;11.58;92.00;98910.59;1753704;80;20214;-84
2023/03/10 07:08:46;;;;;;;16.27;7.00;;;;;;;11.72;90.57;98903.47;1773687;79;21818;-83
2023/03/10 07:12:08;;;;;;;23.67;8.10;;;;;;;11.81;88.83;98908.67;1772322;79;21168;-82
2023/03/10 07:15:19;;;;;;;17.17;7.35;;;;;;;11.89;88.09;98909.83;1763109;79;21196;-85
2023/03/10 07:18:28;;;;;;;18.15;6.80;;;;;;;12.01;87.24;98907.55;1764752;79;21760;-84
2023/03/10 07:28:02;;;;;;;14.50;6.25;;;;;;;12.25;84.22;98910.57;1773359;79;21180;-84
2023/03/10 07:31:18;;;;;;;20.12;6.72;;;;;;;12.26;82.65;98912.25;1696553;80;21346;-84
2023/03/10 07:37:58;;;;;;;19.12;8.15;;;;;;;12.13;80.79;98912.33;1711729;81;21168;-85
2023/03/10 07:41:13;;;;;;;18.12;6.90;;;;;;;12.18;80.12;98916.08;1709790;80;21204;-83
2023/03/10 07:44:20;;;;;;;19.95;7.80;;;;;;;12.18;79.40;98928.41;1714846;80;21303;-83
2023/03/10 07:47:32;;;;;;;15.00;6.67;;;;;;;12.01;79.23;98928.64;1715912;80;21450;-83
2023/03/10 07:50:48;;;;;;;21.82;7.40;;;;;;;11.89;79.77;98932.59;1722432;81;22077;-84
2023/03/10 07:54:21;;;;;;;22.80;8.20;;;;;;;11.85;79.98;98934.61;1726861;81;21233;-83
2023/03/10 07:57:32;;;;;;;19.75;8.65;;;;;;;11.83;79.88;98936.20;1746311;80;21168;-84
2023/03/10 08:00:40;;;;;;;20.12;8.70;;;;;;;11.78;79.46;98933.25;1741114;79;21187;-84
2023/03/10 08:03:47;;;;;;;18.45;9.30;;;;;;;11.74;79.16;98937.48;1722395;81;21139;-83
2023/03/10 08:06:55;;;;;;;18.35;8.80;;;;;;;11.68;79.14;98939.72;1723804;81;21212;-83
2023/03/10 08:13:14;;;;;;;21.33;10.13;;;;;;;11.72;79.15;98954.14;1707358;82;21736;-84
2023/03/10 08:16:26;;;;;;;18.65;7.47;;;;;;;11.77;79.00;98958.97;1705175;82;21265;-84
2023/03/10 08:19:59;;;;;;;17.07;8.08;;;;;;;11.84;79.01;98959.80;1710833;81;21228;-82
2023/03/10 08:23:34;;;;;;;15.93;8.13;;;;;;;11.86;79.07;98962.34;1722236;81;21200;-83
2023/03/10 08:26:49;;;;;;;16.40;7.62;;;;;;;11.95;78.65;98955.02;1725799;81;21175;-83
2023/03/10 08:33:29;;;;;;;14.85;7.67;;;;;;;12.14;76.76;98963.34;1689138;82;22033;-83
2023/03/10 08:36:37;;;;;;;17.45;7.37;;;;;;;12.15;76.71;98971.89;1680442;83;21200;-83
2023/03/10 08:48:39;;;;;;;19.85;8.18;;;;;;;12.13;77.68;98966.61;1693040;83;21177;-83
2023/03/10 08:55:34;;;;;;;15.23;7.78;;;;;;;12.36;77.97;98968.80;1693888;82;21328;-81
2023/03/10 09:01:37;;;;;;;12.43;6.65;;;;;;;12.60;76.97;98967.70;1697030;83;21259;-81
2023/03/10 09:05:26;;;;;;;12.88;7.20;;;;;;;12.74;75.63;98977.51;1701587;83;21248;-84
2023/03/10 09:08:42;;;;;;;14.90;6.75;;;;;;;12.83;74.83;98980.29;1691403;83;21195;-82
2023/03/10 09:11:49;;;;;;;14.05;7.72;;;;;;;12.89;74.77;98984.91;1704173;82;21172;-84
2023/03/10 09:15:00;;;;;;;14.53;7.20;;;;;;;12.94;74.85;98987.81;1681244;83;21254;-82
2023/03/10 09:18:08;;;;;;;12.40;7.40;;;;;;;13.05;74.31;98982.96;1685460;84;21190;-82
2023/03/10 09:30:08;;;;;;;11.80;6.17;;;;;;;13.42;71.72;98987.19;1695888;83;21329;-84
2023/03/10 09:33:48;;;;;;;11.83;6.53;;;;;;;13.57;71.56;98988.73;1672470;84;21528;-83
2023/03/10 09:36:54;;;;;;;8.95;5.35;;;;;;;13.64;70.34;98992.23;1688245;83;21204;-83
2023/03/10 09:40:08;;;;;;;8.48;5.22;;;;;;;13.74;70.32;98992.56;1706315;82;21254;-82
2023/03/10 09:44:17;;;;;;;8.45;5.25;;;;;;;13.85;69.48;98991.80;1701491;82;21308;-82
2023/03/10 09:51:50;;;;;;;9.93;5.20;;;;;;;14.26;67.89;99001.23;1824737;76;28375;-84
2023/03/10 09:59:17;;;;;;;18.98;7.42;;;;;;;14.40;67.02;99002.73;1741358;81;21149;-84
2023/03/10 10:02:56;;;;;;;14.73;7.75;;;;;;;14.46;66.64;99005.08;1769580;79;21148;-84
2023/03/10 10:09:48;;;;;;;13.93;6.05;;;;;;;14.59;65.65;98998.59;1829365;76;22238;-84
2023/03/10 10:12:48;;;;;;;11.00;6.20;;;;;;;14.53;65.38;98997.59;1746792;81;21140;-84
2023/03/10 10:22:38;;;;;;;16.93;9.70;;;;;;;14.09;67.31;99009.27;1766657;79;21204;-84
2023/03/10 10:26:14;;;;;;;16.23;10.05;;;;;;;13.78;67.83;99001.50;1793792;79;21226;-83
2023/03/10 10:29:54;;;;;;;15.30;9.75;;;;;;;13.54;69.41;99009.25;1794899;79;21161;-84
2023/03/10 10:33:26;;;;;;;11.80;8.80;;;;;;;13.34;70.43;99005.33;1832745;76;22205;-83
2023/03/10 10:36:47;;;;;;;14.98;9.38;;;;;;;13.25;70.22;99003.94;1795630;79;21161;-85
2023/03/10 10:39:59;;;;;;;13.40;9.53;;;;;;;13.20;70.59;99007.32;1805576;79;22517;-85
2023/03/10 10:43:25;;;;;;;15.08;10.32;;;;;;;13.14;70.68;99001.37;1787580;79;21161;-84
2023/03/10 10:46:45;;;;;;;17.55;9.80;;;;;;;13.16;70.87;99014.86;1798925;79;21153;-83
2023/03/10 10:49:43;;;;;;;15.48;9.90;;;;;;;13.16;71.11;99011.58;1792118;78;21133;-83
2023/03/10 10:52:47;;;;;;;18.55;11.78;;;;;;;13.22;70.83;99015.36;1813109;79;21676;-84
2023/03/10 10:55:42;;;;;;;14.38;11.22;;;;;;;13.20;69.88;99005.95;1796007;78;21144;-82
2023/03/10 10:58:51;;;;;;;16.93;10.98;;;;;;;13.19;69.66;99011.67;1800388;79;21231;-84
2023/03/10 11:05:28;;;;;;;16.32;11.25;;;;;;;13.13;69.18;99021.66;1792497;79;21728;-84
2023/03/10 11:12:28;;;;;;;14.68;10.68;;;;;;;12.99;69.15;99026.41;1796589;79;21246;-82
2023/03/10 11:19:08;;;;;;;15.45;10.82;;;;;;;13.08;69.32;99028.35;1832993;76;22725;-84
2023/03/10 11:22:37;;;;;;;20.17;11.30;;;;;;;13.05;68.66;99023.30;1803757;79;21161;-84
2023/03/10 11:26:05;;;;;;;17.80;12.45;;;;;;;13.08;69.16;99028.35;1778236;79;21116;-84
2023/03/10 11:29:30;;;;;;;12.70;9.98;;;;;;;13.09;69.66;99033.30;1736418;82;21742;-85
2023/03/10 11:32:48;;;;;;;19.25;11.63;;;;;;;13.16;69.71;99030.80;1734892;82;22479;-85
2023/03/10 11:35:57;;;;;;;17.62;11.93;;;;;;;13.17;69.13;99031.63;1730964;82;21200;-83
2023/03/10 11:39:21;;;;;;;14.50;11.00;;;;;;;13.12;69.06;99030.93;1753344;81;21101;-82
2023/03/10 11:42:50;;;;;;;17.92;12.30;;;;;;;13.07;69.51;99036.25;1715446;82;21207;-84
2023/03/10 11:52:27;;;;;;;21.07;13.25;;;;;;;12.98;69.70;99039.80;1753667;81;21177;-82
2023/03/10 11:55:46;;;;;;;18.15;12.47;;;;;;;12.94;69.72;99043.24;1748492;81;21748;-84
2023/03/10 11:59:06;;;;;;;;;;;;;;;12.79;70.08;99050.39;1756855;81;21769;-84
2023/03/10 12:06:21;;;;;;;18.15;11.68;;;;;;;12.73;70.84;99054.03;1846560;76;22177;-82
2023/03/10 12:13:34;;;;;;;17.30;10.72;;;;;;;12.69;70.66;99056.90;1816095;77;21153;-84
2023/03/10 12:16:43;;;;;;;14.75;10.35;;;;;;;12.73;70.67;99052.66;1818357;77;21204;-85
2023/03/10 12:20:18;;;;;;;13.05;9.73;;;;;;;12.84;70.32;99056.59;1823339;77;21165;-85
2023/03/10 12:23:34;;;;;;;12.45;9.13;;;;;;;12.93;69.94;99051.98;1825139;77;21291;-84
2023/03/10 12:26:50;;;;;;;17.48;11.40;;;;;;;13.07;69.33;99056.84;1786564;79;21149;-83
2023/03/10 12:34:36;;;;;;;13.43;10.20;;;;;;;13.07;67.25;99041.74;1739411;81;21263;-84
2023/03/10 12:37:43;;;;;;;15.78;10.13;;;;;;;13.10;67.03;99052.83;1731697;82;21168;-84
2023/03/10 12:41:15;;;;;;;12.55;8.88;;;;;;;13.09;66.85;99060.22;1735353;81;21212;-84
2023/03/10 12:44:56;;;;;;;10.03;8.08;;;;;;;13.19;66.69;99048.73;1833455;76;23481;-84
2023/03/10 12:48:13;;;;;;;14.78;9.65;;;;;;;13.12;66.84;99049.31;1805043;79;21204;-85
2023/03/10 12:51:22;;;;;;;14.78;9.33;;;;;;;13.13;66.78;99045.52;1799639;79;21418;-85
2023/03/10 12:55:02;;;;;;;11.28;8.63;;;;;;;13.13;66.79;99049.11;1793483;79;21842;-83
2023/03/10 12:58:30;;;;;;;13.38;9.43;;;;;;;13.22;65.91;99049.68;1808079;79;21137;-83
2023/03/10 13:01:52;;;;;;;13.62;10.25;;;;;;;13.24;65.40;99055.80;1783759;80;21169;-82
2023/03/10 13:04:59;;;;;;;18.82;10.72;;;;;;;13.19;65.50;99061.94;1775911;80;21188;-83
2023/03/10 13:08:13;;;;;;;13.80;10.15;;;;;;;13.15;65.76;99055.20;1807204;79;21153;-84
2023/03/10 13:11:30;;;;;;;13.90;10.95;;;;;;;13.09;65.85;99066.25;1793061;79;21173;-83
2023/03/10 13:15:07;;;;;;;17.17;10.95;;;;;;;13.02;66.05;99068.48;1783275;79;21232;-82
2023/03/10 13:21:41;;;;;;;15.10;11.30;;;;;;;12.98;66.10;99060.92;1783669;79;21190;-85
2023/03/10 13:24:49;;;;;;;20.40;11.65;;;;;;;12.95;65.89;99056.73;1783494;79;21229;-84
2023/03/10 13:31:15;;;;;;;18.50;11.55;;;;;;;12.83;65.71;99061.23;1751735;81;21230;-85
2023/03/10 13:34:30;;;;;;;15.25;10.80;;;;;;;12.78;65.71;99054.20;1751378;80;21226;-84
2023/03/10 13:37:49;;;;;;;19.77;10.13;;;;;;;12.73;65.77;99055.40;1751259;82;21245;-84
2023/03/10 13:41:16;;;;;;;15.45;11.03;;;;;;;12.72;65.81;99050.98;1875907;76;22188;-86
2023/03/10 13:44:28;;;;;;;19.55;11.18;;;;;;;12.67;65.96;99057.66;1827320;78;21142;-86
2023/03/10 13:47:39;;;;;;;14.93;10.10;;;;;;;12.65;66.07;99052.38;1735823;82;21209;-86
2023/03/10 15:41:03;;;;;;;30.80;17.10;;;;;;;9.55;75.63;99182.23;1758381;81;21166;-85
2023/03/10 15:44:09;;;;;;;43.00;20.85;;;;;;;9.41;76.36;99172.59;1716639;83;21737;-85
2023/03/10 15:47:15;;;;;;;38.73;20.50;;;;;;;9.30;76.95;99184.01;1750439;82;21774;-85
2023/03/10 15:50:23;;;;;;;36.80;19.92;;;;;;;9.09;77.62;99180.77;1733525;83;21698;-85
2023/03/10 15:53:30;;;;;;;39.73;21.30;;;;;;;8.95;77.98;99189.33;1749849;82;21206;-85
2023/03/10 15:56:37;;;;;;;26.42;15.85;;;;;;;8.81;78.35;99190.74;1734362;82;21152;-85
2023/03/10 15:59:44;;;;;;;31.62;16.90;;;;;;;8.68;78.71;99196.36;1801124;79;21185;-85
2023/03/10 16:02:51;;;;;;;26.42;16.00;;;;;;;8.55;79.25;99201.64;1799963;79;21185;-85
2023/03/10 16:05:58;;;;;;;34.10;17.57;;;;;;;8.45;79.70;99202.45;1799828;79;21200;-86
2023/03/10 16:09:04;;;;;;;44.42;17.12;;;;;;;8.36;80.12;99203.55;1817520;79;21176;-85
2023/03/10 16:12:11;;;;;;;36.38;19.12;;;;;;;8.23;80.77;99200.13;1794555;79;21173;-86
2023/03/10 16:15:19;;;;;;;41.28;21.70;;;;;;;8.11;81.41;99192.95;1789358;79;21181;-85
2023/03/10 16:18:25;;;;;;;43.48;23.60;;;;;;;7.93;82.21;99202.00;1792416;80;21550;-86
2023/03/10 16:21:33;;;;;;;41.88;23.00;;;;;;;7.79;82.80;99206.91;1793214;80;21173;-86
2023/03/10 16:24:39;;;;;;;40.12;23.92;;;;;;;7.64;83.47;99215.05;1775686;80;21162;-86
2023/03/10 16:27:39;;;;;;;;;;;;;;;7.50;84.10;99211.78;1794904;80;21217;-86
2023/03/10 16:30:45;;;;;;;32.60;20.62;;;;;;;7.37;84.84;99202.34;1792661;80;20170;-86
2023/03/10 16:33:53;;;;;;;41.15;21.75;;;;;;;7.26;85.50;99211.46;1789735;80;21205;-86
2023/03/10 16:37:06;;;;;;;53.15;30.77;;;;;;;7.17;86.08;99218.83;1791755;80;21734;-86
2023/03/10 16:40:06;;;;;;;55.05;30.82;;;;;;;7.11;86.43;99222.28;1771059;80;21185;-85
2023/03/10 16:43:12;;;;;;;40.10;20.52;;;;;;;7.07;86.69;99225.02;1792064;79;21212;-85
2023/03/10 16:46:24;;;;;;;30.37;16.97;;;;;;;6.98;87.03;99230.18;1789892;80;21177;-86
2023/03/10 16:49:31;;;;;;;28.90;15.28;;;;;;;6.90;87.31;99229.19;1788423;80;21146;-86
2023/03/10 16:52:36;;;;;;;30.80;15.98;;;;;;;6.86;87.72;99229.20;1789692;80;21190;-86
2023/03/10 16:55:43;;;;;;;29.90;15.72;;;;;;;6.80;87.85;99227.22;1790398;80;21150;-86
2023/03/10 16:58:49;;;;;;;29.32;16.57;;;;;;;6.76;88.05;99223.67;1790222;80;21145;-87
2023/03/10 17:01:56;;;;;;;34.92;19.67;;;;;;;6.70;88.16;99223.87;1790300;80;21181;-86
2023/03/10 17:05:01;;;;;;;42.45;20.70;;;;;;;6.65;88.34;99220.85;1789721;80;21722;-86
2023/03/10 17:08:04;;;;;;;37.55;19.12;;;;;;;6.60;88.49;99227.33;1789720;80;21625;-86
2023/03/10 17:10:56;;;;;;;37.17;20.43;;;;;;;6.51;88.88;99230.59;1790045;80;21699;-86
2023/03/10 17:14:04;;;;;;;35.70;18.57;;;;;;;6.47;89.29;99232.48;1790068;80;21181;-87
2023/03/10 17:17:11;;;;;;;45.63;18.98;;;;;;;6.47;89.31;99230.60;1790589;80;21750;-86
2023/03/10 17:20:19;;;;;;;30.25;18.65;;;;;;;6.43;89.19;99236.56;1788773;80;21204;-87
2023/03/10 17:23:26;;;;;;;37.13;17.77;;;;;;;6.39;89.43;99231.47;1788693;80;21216;-85
2023/03/10 17:26:32;;;;;;;30.90;16.82;;;;;;;6.33;89.60;99232.70;1790078;80;21158;-86
2023/03/10 17:29:38;;;;;;;36.60;17.30;;;;;;;6.22;89.84;99224.42;1790242;80;21146;-86
2023/03/10 17:32:45;;;;;;;39.63;18.80;;;;;;;6.15;90.32;99223.41;1788746;80;21204;-86
2023/03/10 17:35:52;;;;;;;36.98;20.00;;;;;;;6.12;90.63;99237.36;1789517;80;21213;-86
2023/03/10 17:39:03;;;;;;;35.45;18.73;;;;;;;5.99;91.23;99234.33;1780376;78;21144;-86
2023/03/10 17:42:08;;;;;;;;;;;;;;;5.95;91.55;99231.11;1762899;81;21780;-87
2023/03/10 17:45:14;;;;;;;39.98;20.05;;;;;;;5.93;91.69;99228.22;1760389;81;20195;-87
2023/03/10 17:48:21;;;;;;;36.58;20.27;;;;;;;5.89;91.96;99229.06;1751318;81;21215;-86
2023/03/10 17:51:34;;;;;;;41.02;21.33;;;;;;;5.83;92.06;99222.47;1764314;81;21227;-85
2023/03/10 17:54:38;;;;;;;42.23;22.02;;;;;;;5.77;92.30;99225.00;1766700;81;21156;-86
2023/03/10 17:57:46;;;;;;;45.17;22.70;;;;;;;5.72;92.59;99228.23;1766193;81;21179;-86
2023/03/10 18:00:52;;;;;;;42.95;22.70;;;;;;;5.69;92.92;99230.43;1786379;80;21152;-85
2023/03/10 18:03:58;;;;;;;51.85;24.85;;;;;;;5.64;93.12;99236.37;1764854;81;21207;-86
2023/03/10 18:07:04;;;;;;;41.98;21.68;;;;;;;5.59;93.54;99238.75;1765625;81;21208;-86
2023/03/10 18:10:10;;;;;;;34.88;19.40;;;;;;;5.56;93.86;99243.17;1765745;81;21172;-86
2023/03/10 18:13:18;;;;;;;41.98;21.27;;;;;;;5.53;94.01;99245.70;1764654;80;21176;-86
2023/03/10 18:16:32;;;;;;;38.40;19.62;;;;;;;5.47;94.21;99241.48;1766148;81;21195;-87
2023/03/10 18:19:38;;;;;;;40.75;19.75;;;;;;;5.42;94.44;99245.22;1766379;81;21542;-86
2023/03/10 18:22:45;;;;;;;38.35;19.82;;;;;;;5.34;94.67;99245.53;1764125;80;21187;-87
2023/03/10 18:25:51;;;;;;;35.13;18.35;;;;;;;5.27;94.88;99250.43;1765421;81;21164;-85
2023/03/10 18:28:57;;;;;;;34.23;19.32;;;;;;;5.19;95.22;99247.73;1765915;81;21187;-87